Sarah Desgagnes — XJAB — position and weather

sailwx.info

Track history (hours):
 
Tides and Currents Weather Stations Pressure Air Temp Water Temp Dewpoint Dewpoint Depression Visibility Wind Speed Wind Dir Waves Ship Positions

Sarah Desgagnes

Last reported at 2014-Nov-24 07:00 UTC. Time now 2014-Nov-24 09:29 UTC.
Position N 42°00' W 083°06'.

Length 148 m; draft 7.4 m.

Type: Tanker. MMSI: 316012308.

Wind from 160 at 22 knots

Barometer 985.8 mb
Air temperature 6.9 ° C
Dewpoint 6.9 ° C
Water temperature 3.1 ° C

Date/timePositionNaut miles runAvg speedWind from/ knotsBaromVisibWave heightAir tempDewpointWater temp
2014-Nov-24 07:00N 42°00' W 083°06'1212.0 160 / 22985.8 6.9 6.9 3.1
2014-Nov-24 06:00N 42°12' W 083°06'6 6.0 160 / 23987.5 9.9 9.9 3.3
2014-Nov-24 05:00N 42°18' W 083°06'1110.7 140 / 13990.5 10.610.3 3.8
2014-Nov-24 04:00N 42°24' W 082°54'1110.7 130 / 19993.6 7.0 7.0 2.4
2014-Nov-24 03:00N 42°30' W 082°42'1110.7 120 / 22997.3 8.7 8.2 6.5
2014-Nov-24 02:00N 42°36' W 082°30'1212.0 140 / 13999.5 11.2 8.1 7.0
2014-Nov-24 01:00N 42°48' W 082°30'7 7.4 140 / 131001.3 12.0 6.8 7.0
2014-Nov-24 00:00N 42°54' W 082°24'0 0.0 120 / 131003.7 11.0 6.7
2014-Nov-23 23:00N 42°54' W 082°24'0 0.0 120 / 121005.0 10.1 6.4
2014-Nov-23 22:00N 42°54' W 082°24'0 0.0 140 / 81006.5 10.8 7.0
2014-Nov-23 21:00N 42°54' W 082°24'0 0.0 170 / 71007.7 10.9 7.4
2014-Nov-23 20:00N 42°54' W 082°24'0 0.0 170 / 111008.7 10.1 7.4
2014-Nov-23 19:00N 42°54' W 082°24'0 0.0 170 / 91010.1 9.5 7.7
2014-Nov-23 18:00N 42°54' W 082°24'0 0.0 180 / 71011.6 9.2 7.7
2014-Nov-23 17:00N 42°54' W 082°24'0 0.0 180 / 81012.9 8.4 7.5
2014-Nov-23 16:00N 42°54' W 082°24'0 0.0 190 / 61014.6 8.3 7.2
2014-Nov-23 15:00N 42°54' W 082°24'0 0.0 190 / 71014.1 8.8 6.9
2014-Nov-23 14:00N 42°54' W 082°24'0 0.0 200 / 61014.0 9.2 7.0
2014-Nov-23 13:00N 42°54' W 082°24'0 0.0 200 / 61014.0 9.2 7.0
2014-Nov-23 12:00N 42°54' W 082°24'0 0.0 200 / 71013.8 10.1 6.0
2014-Nov-23 11:00N 42°54' W 082°24'0 0.0 210 / 31013.6 9.7 5.0
2014-Nov-23 10:00N 42°54' W 082°24'0 0.0 200 / 71013.3 10.3 5.5
2014-Nov-23 09:00N 42°54' W 082°24'0 0.0 200 / 41013.8 10.0 5.6
2014-Nov-23 08:00N 42°54' W 082°24'0 0.0 200 / 41014.2 10.0 6.0
2014-Nov-23 07:00N 42°54' W 082°24'0 0.0 190 / 61013.9 8.8 5.9
2014-Nov-23 06:00N 42°54' W 082°24'0 0.0 190 / 61014.3 9.6 6.3
2014-Nov-23 05:00N 42°54' W 082°24'0 0.0 200 / 61014.0 9.5 6.3
2014-Nov-23 04:00N 42°54' W 082°24'0 0.0 200 / 41013.9 10.0 6.5
2014-Nov-23 03:00N 42°54' W 082°24'0 0.0 210 / 31013.6 9.6 6.3
2014-Nov-23 02:00N 42°54' W 082°24'0 0.0 210 / 31013.6 9.3 6.4
2014-Nov-23 01:00N 42°54' W 082°24'0 0.0 210 / 31013.7 8.6 5.7
2014-Nov-23 00:00N 42°54' W 082°24'0 0.0 200 / 61013.9 8.1 5.8 5.4
2014-Nov-22 23:00N 42°54' W 082°24'0 0.0 200 / 31014.1 9.9 5.3 6.1
2014-Nov-22 22:00N 42°54' W 082°24'7 7.4 190 / 71014.3 6.1 4.1 6.2
2014-Nov-22 21:00N 42°48' W 082°30'6 6.0 210 / 81015.1 4.4 3.1 6.2
2014-Nov-22 20:00N 42°42' W 082°30'2211.2 210 / 111015.1 3.8 2.6 6.2
2014-Nov-22 18:00N 42°24' W 082°48'1110.7 220 / 161017.0 3.2 2.1 3.1
2014-Nov-22 17:00N 42°18' W 083°00'7 7.5 210 / 10 2.6 1.6 2.2
2014-Nov-22 16:00N 42°12' W 083°06'1212.0 210 / 91019.5 1.5 1.0 2.3
2014-Nov-22 15:00N 42°00' W 083°06'1110.8 210 / 121020.5 0.7 0.3 1.7
2014-Nov-22 14:00N 41°54' W 082°54'9 8.9 220 / 181020.3 0.8 0.1 2.4
2014-Nov-22 13:00N 41°54' W 082°42'1514.7 210 / 221020.6 0.7-0.4 3.7
2014-Nov-22 12:00N 41°48' W 082°24'1110.8 200 / 251021.5 2.0-4.3 3.4
2014-Nov-22 11:00N 41°54' W 082°12'1313.4 210 / 241022.3 2.2-5.2 8.0
2014-Nov-22 10:00N 41°54' W 081°54'1110.8 200 / 221023.7 0.9-5.2 8.0
2014-Nov-22 09:00N 42°00' W 081°42'1514.7 210 / 241024.6 1.2-5.8 8.1
2014-Nov-22 08:00N 42°06' W 081°24'1110.7 200 / 231026.3 0.5-5.3 7.9
2014-Nov-22 07:00N 42°12' W 081°12'1514.6 220 / 221026.8 0.2-5.5 7.7
2014-Nov-22 06:00N 42°18' W 080°54'1313.3 210 / 221027.9 -1.1-6.5 7.7
2014-Nov-22 05:00N 42°18' W 080°36'1110.7 210 / 221028.3 -2.0-6.9 7.8
2014-Nov-22 04:00N 42°24' W 080°24'1514.6 220 / 221029.0 -2.1-7.9 8.5
2014-Nov-22 03:00N 42°30' W 080°06'1110.7 220 / 191029.4 -2.3-7.5 8.0
2014-Nov-22 02:00N 42°36' W 079°54'1514.5 230 / 201029.2 -1.5-6.3 9.0
2014-Nov-22 01:00N 42°42' W 079°36'1110.7 240 / 251029.2 -1.1-5.1 7.4
2014-Nov-22 00:00N 42°48' W 079°24'1110.6 260 / 231029.9 -1.4-6.6 6.4
2014-Nov-21 23:00N 42°54' W 079°12'0 0.0 290 / 71031.7 -4.0-10.7 5.3
2014-Nov-21 22:00N 42°54' W 079°12'6 6.0 270 / 71031.3 -4.1-10.6 5.0
2014-Nov-21 21:00N 43°00' W 079°12'6 6.0 260 / 11 -3.1-10.5 5.2
2014-Nov-21 20:00N 43°06' W 079°12'0 0.0 260 / 8 -2.7-10.1 6.5
2014-Nov-21 19:00N 43°06' W 079°12'0 0.0 250 / 8 -2.6-10.6 5.9
2014-Nov-21 18:00N 43°06' W 079°12'0 0.0 250 / 8 -3.1-10.4
2014-Nov-21 17:00N 43°06' W 079°12'6 6.0 270 / 3 -3.3-9.9 6.1
2014-Nov-21 16:00N 43°12' W 079°12'0 0.0 250 / 51026.1 -4.1-9.1 6.0
2014-Nov-21 15:00N 43°12' W 079°12'0 0.0 240 / 91025.3 -5.7-9.7 5.7
2014-Nov-21 14:00N 43°12' W 079°12'0 0.0 240 / 81025.7 -5.5-8.9 5.8
2014-Nov-21 13:00N 43°12' W 079°12'6 6.0 240 / 121026.3 -5.7-8.1 6.1
2014-Nov-21 12:00N 43°18' W 079°12'7 7.4 300 / 81024.5 -2.7-6.8 6.0
2014-Nov-21 11:00N 43°12' W 079°18'0 0.0 270 / 211022.9 -3.8-6.2 5.5
2014-Nov-21 05:00N 43°12' W 079°18'0 0.0 260 / 221016.5 -5.4-9.3 5.5
2014-Nov-21 04:00N 43°12' W 079°18'0 0.0 260 / 241015.7 -4.8-8.4 5.4
2014-Nov-21 03:00N 43°12' W 079°18'0 0.0 250 / 251015.1 -4.8-8.6
2014-Nov-21 02:00N 43°12' W 079°18'0 0.0 270 / 241014.8 -3.7-7.6 5.5
2014-Nov-21 01:00N 43°12' W 079°18'0 0.0 270 / 241014.2 -3.3-7.3 5.6
2014-Nov-21 00:00N 43°12' W 079°18'0 0.0 270 / 221014.0 -3.4-6.5 5.8
2014-Nov-20 23:00N 43°12' W 079°18'1414.4 270 / 191013.8 -2.1-5.2 6.3
2014-Nov-20 22:00N 43°18' W 079°36'9 8.7 250 / 171012.7 -2.6-6.6 6.3
2014-Nov-20 21:00N 43°18' W 079°48'0 0.0 260 / 191011.5 -3.0-7.4 5.9
2014-Nov-20 20:00N 43°18' W 079°48'0 0.0 250 / 191010.9 -3.4-6.9
2014-Nov-20 19:00N 43°18' W 079°48'0 0.0 290 / 201010.6 -4.0-5.9
2014-Nov-20 13:00N 43°18' W 079°48'0 0.0 240 / 241009.4 -3.6-8.0
2014-Nov-20 10:00N 43°18' W 079°48'0 0.0 260 / 251007.9 -2.6-7.4
2014-Nov-20 09:00N 43°18' W 079°48'0 0.0 250 / 231007.6 -2.3-6.2
2014-Nov-20 08:00N 43°18' W 079°48'0 0.0 260 / 231007.3 -2.2-5.7
2014-Nov-20 07:00N 43°18' W 079°48'0 0.0 240 / 251007.1 -1.9-4.9
2014-Nov-20 06:00N 43°18' W 079°48'0 0.0 240 / 251006.8 -1.0-6.7
2014-Nov-20 03:00N 43°18' W 079°48'0 0.0 260 / 221005.5 0.5-3.2 5.9
2014-Nov-20 02:00N 43°18' W 079°48'0 0.0 230 / 161005.8 0.3-2.1
2014-Nov-20 01:00N 43°18' W 079°48'0 0.0 230 / 131006.8 -0.7-1.2
2014-Nov-19 23:00N 43°18' W 079°48'0 0.0 180 / 131008.9 -2.0-3.3
2014-Nov-19 22:00N 43°18' W 079°48'0 0.0 160 / 121010.2 -2.9-3.7
2014-Nov-19 21:00N 43°18' W 079°48'0 0.0 180 / 131011.0 -3.4-4.6
2014-Nov-19 20:00N 43°18' W 079°48'0 0.0 170 / 101011.9 -4.0-5.0
2014-Nov-19 19:00N 43°18' W 079°48'0 0.0 160 / 81013.7 -4.7-6.7
2014-Nov-19 18:00N 43°18' W 079°48'0 0.0 220 / 81015.5 -5.1-8.3
2014-Nov-19 17:00N 43°18' W 079°48'0 0.0 240 / 131016.7 -5.8-9.8
2014-Nov-19 16:00N 43°18' W 079°48'0 0.0 240 / 101018.0 -5.9-11.4
2014-Nov-19 15:00N 43°18' W 079°48'0 0.0 250 / 121018.6 -6.9-11.8
2014-Nov-19 14:00N 43°18' W 079°48'0 0.0 230 / 121019.2 -8.0-11.5
2014-Nov-19 13:00N 43°18' W 079°48'0 0.0 240 / 141018.9 -8.2-11.0
2014-Nov-19 12:00N 43°18' W 079°48'0 0.0 250 / 171018.4 -8.0-11.0
2014-Nov-19 11:00N 43°18' W 079°48'0 0.0 260 / 171018.1 -8.0-11.1
2014-Nov-19 10:00N 43°18' W 079°48'0 0.0 250 / 201018.0 -7.8-11.0
2014-Nov-19 07:00N 43°18' W 079°48'0 0.0 240 / 251017.3 -7.2-10.5
2014-Nov-19 06:00N 43°18' W 079°48'0 0.0 250 / 211016.8 -6.8-10.3 5.8
2014-Nov-18 08:00N 43°18' W 079°48'0 0.0 250 / 251005.5 -6.1-10.2
2014-Nov-18 06:00N 43°18' W 079°48'0 0.0 260 / 211005.1 -5.1-9.7
2014-Nov-18 05:00N 43°18' W 079°48'7 0.7 250 / 231005.1 -4.0-9.0
2014-Nov-17 19:00N 43°24' W 079°42'0 0.0 260 / 61000.5 1.3 1.1
2014-Nov-17 18:00N 43°24' W 079°42'0 0.0 290 / 21000.9 2.1 1.3
2014-Nov-17 17:00N 43°24' W 079°42'0 0.0 320 / 11002.1 1.7 1.0
2014-Nov-17 16:00N 43°24' W 079°42'0 0.0 330 / 31003.2 1.2 0.8
2014-Nov-17 15:00N 43°24' W 079°42'0 0.0 330 / 51004.2 0.4 0.3
2014-Nov-17 13:00N 43°24' W 079°42'0 0.0 330 / 81006.9 -0.0-0.5
2014-Nov-17 12:00N 43°24' W 079°42'0 0.0 350 / 81007.4 -0.5-0.6
2014-Nov-17 11:00N 43°24' W 079°42'0 0.0 340 / 91008.1 -0.4-0.6
2014-Nov-17 10:00N 43°24' W 079°42'0 0.0 340 / 71009.4 -0.5-0.6
2014-Nov-17 09:00N 43°24' W 079°42'0 0.0 360 / 71010.5 -0.4-0.4
2014-Nov-17 08:00N 43°24' W 079°42'0 0.0 030 / 61011.8 -0.1-0.2
2014-Nov-17 07:00N 43°24' W 079°42'0 0.0 030 / 41012.6 -0.1-0.9
2014-Nov-17 06:00N 43°24' W 079°42'0 0.0 080 / 51013.5 0.1-0.8
2014-Nov-17 05:00N 43°24' W 079°42'0 0.0 070 / 21014.5 -0.4-0.9
2014-Nov-17 04:00N 43°24' W 079°42'0 0.0 350 / 11015.3 -0.4-0.5
2014-Nov-17 03:00N 43°24' W 079°42'0 0.0 250 / 11015.9 0.2-0.2
2014-Nov-17 02:00N 43°24' W 079°42'0 0.0 240 / 31016.3 0.3-0.5
2014-Nov-17 01:00N 43°24' W 079°42'0 0.0 220 / 61017.4 0.2-0.2
2014-Nov-17 00:00N 43°24' W 079°42'0 0.0 220 / 81018.1 0.2-0.4
2014-Nov-16 23:00N 43°24' W 079°42'0 0.0 220 / 71017.9 0.2-0.3
2014-Nov-16 22:00N 43°24' W 079°42'0 0.0 210 / 81017.8 0.2-0.8
2014-Nov-16 21:00N 43°24' W 079°42'0 0.0 200 / 91018.0 -0.0-1.0
2014-Nov-16 20:00N 43°24' W 079°42'0 0.0 220 / 71018.2 0.2-1.5
2014-Nov-16 19:00N 43°24' W 079°42'0 0.0 220 / 91018.6 -0.1-2.0
2014-Nov-16 18:00N 43°24' W 079°42'0 0.0 230 / 61019.4 -0.5-2.1
2014-Nov-16 17:00N 43°24' W 079°42'0 0.0 250 / 61020.1 -0.6-2.6
2014-Nov-16 16:00N 43°24' W 079°42'4 4.4 230 / 91020.8 -0.5-2.3 7.2
2014-Nov-16 15:00N 43°24' W 079°36'1313.1 240 / 101020.9 -1.0-2.7 7.6
2014-Nov-16 14:00N 43°24' W 079°18'1818.4 220 / 111021.6 -0.6-2.4 7.3
2014-Nov-16 13:00N 43°30' W 078°54'9 8.7 210 / 131021.6 -0.2-1.6 7.1
2014-Nov-16 12:00N 43°30' W 078°42'1414.4 210 / 141021.3 -0.2-1.1 7.0
2014-Nov-16 11:00N 43°36' W 078°24'1313.0 220 / 131021.9 0.2-0.3 9.1
2014-Nov-16 10:00N 43°36' W 078°06'1414.3 230 / 131022.3 1.0-0.7 8.3
2014-Nov-16 09:00N 43°42' W 077°48'1313.0 280 / 91023.1 2.1-2.3 9.3
2014-Nov-16 08:00N 43°42' W 077°30'1414.3 330 / 81023.3 1.8-1.9 8.8
2014-Nov-16 07:00N 43°48' W 077°12'1414.3 250 / 181022.9 3.2-3.211.1
2014-Nov-16 06:00N 43°54' W 076°54'1313.0 300 / 111023.8 1.5-3.210.8
2014-Nov-16 05:00N 43°54' W 076°36'817.2 290 / 171023.5 1.8-4.410.7
2014-Nov-16 04:33N 44°00' W 076°30'712.9
2014-Nov-16 04:00N 44°06' W 076°24'612.8 280 / 201023.3 1.7-5.110.3
2014-Nov-16 03:33N 44°10' W 076°19'5 9.7
2014-Nov-16 03:00N 44°12' W 076°12'613.9 270 / 231022.7 1.8-5.8 9.9
2014-Nov-16 02:33N 44°15' W 076°05'814.6
2014-Nov-16 02:00N 44°18' W 075°54'3 5.6 250 / 19 2.4-5.6 9.9
2014-Nov-16 01:31N 44°20' W 075°55'4 6.9
2014-Nov-16 01:00N 44°24' W 075°54'4 8.6 260 / 17 2.2-4.4 9.9
2014-Nov-16 00:33N 44°26' W 075°50'4 7.3
2014-Nov-16 00:00N 44°30' W 075°48'614.8 240 / 16 2.3-5.4 9.8
2014-Nov-15 23:33N 44°35' W 075°42'815.0
2014-Nov-15 23:00N 44°42' W 075°36'1010.4 190 / 9 1.5-5.3 9.9
2014-Nov-15 22:00N 44°48' W 075°24'14 7.1 220 / 7 1.6-6.010.0
2014-Nov-15 20:00N 44°54' W 075°06'9 8.5 250 / 14 1.4-7.0 9.8
2014-Nov-15 19:00N 44°54' W 074°54'4 4.3 270 / 12 1.0-7.5 8.5
2014-Nov-15 18:00N 44°54' W 074°48'0 0.0 270 / 15 0.9-8.0 7.9
2014-Nov-15 17:00N 44°54' W 074°48'7 7.4 260 / 12 0.1-7.5 8.1
2014-Nov-15 16:00N 45°00' W 074°42'710.1 260 / 15 -0.9-7.5 9.5
2014-Nov-15 15:19N 45°03' W 074°33'411.6
2014-Nov-15 15:00N 45°06' W 074°30'3 6.3 270 / 16 -1.7-8.3 9.4
2014-Nov-15 14:34N 45°08' W 074°27'813.5
2014-Nov-15 14:00N 45°12' W 074°18'4 9.0 270 / 17 -3.0-8.6 9.0
2014-Nov-15 13:33N 45°14' W 074°13'5 9.3
2014-Nov-15 13:00N 45°12' W 074°06'4 9.7 270 / 22 -3.0-8.2 8.8
2014-Nov-15 12:33N 45°14' W 074°01'611.1
2014-Nov-15 12:00N 45°18' W 073°54'1 2.6 260 / 8 -3.9-8.9 8.8
2014-Nov-15 11:33N 45°18' W 073°56'1 2.0
2014-Nov-15 11:00N 45°18' W 073°54'1 3.0 260 / 13 -2.5-9.5 9.2
2014-Nov-15 10:33N 45°19' W 073°55'1 2.3
2014-Nov-15 10:00N 45°18' W 073°54'613.9 270 / 17 -1.8-8.7 8.6
2014-Nov-15 09:33N 45°23' W 073°49'5 8.7
2014-Nov-15 09:00N 45°24' W 073°42'3 8.0 290 / 12 -2.0-9.7 7.5
2014-Nov-15 08:33N 45°24' W 073°37'1 1.4
2014-Nov-15 08:00N 45°24' W 073°36'2 4.4 300 / 10 -2.8-8.4
2014-Nov-15 07:33N 45°24' W 073°33'2 4.3
2014-Nov-15 07:00N 45°24' W 073°30'2 3.9 290 / 13 -2.4-7.1 7.9
2014-Nov-15 06:33N 45°26' W 073°30'4 7.6
2014-Nov-15 06:00N 45°30' W 073°30'1 1.9 290 / 11 -2.2-7.0 7.7
2014-Nov-15 05:33N 45°30' W 073°31'1 1.4
2014-Nov-15 05:00N 45°30' W 073°30'1 3.0 290 / 10 -1.8-6.6 7.6
2014-Nov-15 04:33N 45°31' W 073°31'5 9.3
2014-Nov-15 04:00N 45°36' W 073°30'1 1.8 280 / 10 -2.0-6.6 8.0
2014-Nov-15 03:33N 45°37' W 073°30'1 1.3
2014-Nov-15 03:00N 45°36' W 073°30'0 0.0 280 / 6 -1.8-7.0
2014-Nov-15 02:00N 45°36' W 073°30'0 0.0 290 / 7 -1.4-6.9
2014-Nov-15 01:00N 45°36' W 073°30'0 0.0 290 / 5 -0.9-7.1
2014-Nov-15 00:00N 45°36' W 073°30'0 0.0 290 / 5 -0.5-7.8
2014-Nov-14 23:00N 45°36' W 073°30'0 0.0 280 / 6 -0.1-6.6
2014-Nov-14 22:00N 45°36' W 073°30'0 0.0 300 / 6 0.4-7.3
2014-Nov-14 21:00N 45°36' W 073°30'0 0.0 290 / 6 0.9-7.1
2014-Nov-14 20:00N 45°36' W 073°30'0 0.0 260 / 8 0.9-6.9
2014-Nov-14 19:00N 45°36' W 073°30'0 0.0 260 / 9 0.8-6.7
2014-Nov-14 18:00N 45°36' W 073°30'0 0.0 280 / 9 0.8-8.6
2014-Nov-14 17:00N 45°36' W 073°30'0 0.0 280 / 10 0.3-7.0
2014-Nov-14 16:00N 45°36' W 073°30'0 0.0 260 / 10 0.8-6.5
2014-Nov-14 15:00N 45°36' W 073°30'0 0.0 270 / 8 0.1-4.3
2014-Nov-14 14:00N 45°36' W 073°30'0 0.0 280 / 5 -0.0-3.4
2014-Nov-14 13:00N 45°36' W 073°30'0 0.0 250 / 6 -0.7-3.2
2014-Nov-14 12:00N 45°36' W 073°30'0 0.0 270 / 4 -1.4-3.1
2014-Nov-14 11:00N 45°36' W 073°30'1 1.2 260 / 6 -1.1-3.0
2014-Nov-14 10:20N 45°37' W 073°30'1 2.2
2014-Nov-14 10:00N 45°36' W 073°30'0 0.0 270 / 7 -0.4-3.0
2014-Nov-14 09:00N 45°36' W 073°30'0 0.0 270 / 5 -0.0-2.6
2014-Nov-14 08:00N 45°36' W 073°30'0 0.0 250 / 7 0.5-1.9
2014-Nov-14 07:00N 45°36' W 073°30'   270 / 9 0.8-1.7
Track history (hours):
 
Tides and Currents Weather Stations Pressure Air Temp Water Temp Dewpoint Dewpoint Depression Visibility Wind Speed Wind Dir Waves Ship Positions

Sarah Desgagnes

Last reported at 2014-Nov-24 07:00 UTC. Time now 2014-Nov-24 09:29 UTC.
Position N 42°00' W 083°06'.

Length 148 m; draft 7.4 m.

Type: Tanker. MMSI: 316012308.

Wind from 160 at 22 knots

Barometer 985.8 mb
Air temperature 6.9 ° C
Dewpoint 6.9 ° C
Water temperature 3.1 ° C

Date/timePositionNaut miles runAvg speedWind from/ knotsBaromVisibWave heightAir tempDewpointWater temp
2014-Nov-24 07:00N 42°00' W 083°06'1212.0 160 / 22985.8 6.9 6.9 3.1
2014-Nov-24 06:00N 42°12' W 083°06'6 6.0 160 / 23987.5 9.9 9.9 3.3
2014-Nov-24 05:00N 42°18' W 083°06'1110.7 140 / 13990.5 10.610.3 3.8
2014-Nov-24 04:00N 42°24' W 082°54'1110.7 130 / 19993.6 7.0 7.0 2.4
2014-Nov-24 03:00N 42°30' W 082°42'1110.7 120 / 22997.3 8.7 8.2 6.5
2014-Nov-24 02:00N 42°36' W 082°30'1212.0 140 / 13999.5 11.2 8.1 7.0
2014-Nov-24 01:00N 42°48' W 082°30'7 7.4 140 / 131001.3 12.0 6.8 7.0
2014-Nov-24 00:00N 42°54' W 082°24'0 0.0 120 / 131003.7 11.0 6.7
2014-Nov-23 23:00N 42°54' W 082°24'0 0.0 120 / 121005.0 10.1 6.4
2014-Nov-23 22:00N 42°54' W 082°24'0 0.0 140 / 81006.5 10.8 7.0
2014-Nov-23 21:00N 42°54' W 082°24'0 0.0 170 / 71007.7 10.9 7.4
2014-Nov-23 20:00N 42°54' W 082°24'0 0.0 170 / 111008.7 10.1 7.4
2014-Nov-23 19:00N 42°54' W 082°24'0 0.0 170 / 91010.1 9.5 7.7
2014-Nov-23 18:00N 42°54' W 082°24'0 0.0 180 / 71011.6 9.2 7.7
2014-Nov-23 17:00N 42°54' W 082°24'0 0.0 180 / 81012.9 8.4 7.5
2014-Nov-23 16:00N 42°54' W 082°24'0 0.0 190 / 61014.6 8.3 7.2
2014-Nov-23 15:00N 42°54' W 082°24'0 0.0 190 / 71014.1 8.8 6.9
2014-Nov-23 14:00N 42°54' W 082°24'0 0.0 200 / 61014.0 9.2 7.0
2014-Nov-23 13:00N 42°54' W 082°24'0 0.0 200 / 61014.0 9.2 7.0
2014-Nov-23 12:00N 42°54' W 082°24'0 0.0 200 / 71013.8 10.1 6.0
2014-Nov-23 11:00N 42°54' W 082°24'0 0.0 210 / 31013.6 9.7 5.0
2014-Nov-23 10:00N 42°54' W 082°24'0 0.0 200 / 71013.3 10.3 5.5
2014-Nov-23 09:00N 42°54' W 082°24'0 0.0 200 / 41013.8 10.0 5.6
2014-Nov-23 08:00N 42°54' W 082°24'0 0.0 200 / 41014.2 10.0 6.0
2014-Nov-23 07:00N 42°54' W 082°24'0 0.0 190 / 61013.9 8.8 5.9
2014-Nov-23 06:00N 42°54' W 082°24'0 0.0 190 / 61014.3 9.6 6.3
2014-Nov-23 05:00N 42°54' W 082°24'0 0.0 200 / 61014.0 9.5 6.3
2014-Nov-23 04:00N 42°54' W 082°24'0 0.0 200 / 41013.9 10.0 6.5
2014-Nov-23 03:00N 42°54' W 082°24'0 0.0 210 / 31013.6 9.6 6.3
2014-Nov-23 02:00N 42°54' W 082°24'0 0.0 210 / 31013.6 9.3 6.4
2014-Nov-23 01:00N 42°54' W 082°24'0 0.0 210 / 31013.7 8.6 5.7
2014-Nov-23 00:00N 42°54' W 082°24'0 0.0 200 / 61013.9 8.1 5.8 5.4
2014-Nov-22 23:00N 42°54' W 082°24'0 0.0 200 / 31014.1 9.9 5.3 6.1
2014-Nov-22 22:00N 42°54' W 082°24'7 7.4 190 / 71014.3 6.1 4.1 6.2
2014-Nov-22 21:00N 42°48' W 082°30'6 6.0 210 / 81015.1 4.4 3.1 6.2
2014-Nov-22 20:00N 42°42' W 082°30'2211.2 210 / 111015.1 3.8 2.6 6.2
2014-Nov-22 18:00N 42°24' W 082°48'1110.7 220 / 161017.0 3.2 2.1 3.1
2014-Nov-22 17:00N 42°18' W 083°00'7 7.5 210 / 10 2.6 1.6 2.2
2014-Nov-22 16:00N 42°12' W 083°06'1212.0 210 / 91019.5 1.5 1.0 2.3
2014-Nov-22 15:00N 42°00' W 083°06'1110.8 210 / 121020.5 0.7 0.3 1.7
2014-Nov-22 14:00N 41°54' W 082°54'9 8.9 220 / 181020.3 0.8 0.1 2.4
2014-Nov-22 13:00N 41°54' W 082°42'1514.7 210 / 221020.6 0.7-0.4 3.7
2014-Nov-22 12:00N 41°48' W 082°24'1110.8 200 / 251021.5 2.0-4.3 3.4
2014-Nov-22 11:00N 41°54' W 082°12'1313.4 210 / 241022.3 2.2-5.2 8.0
2014-Nov-22 10:00N 41°54' W 081°54'1110.8 200 / 221023.7 0.9-5.2 8.0
2014-Nov-22 09:00N 42°00' W 081°42'1514.7 210 / 241024.6 1.2-5.8 8.1
2014-Nov-22 08:00N 42°06' W 081°24'1110.7 200 / 231026.3 0.5-5.3 7.9
2014-Nov-22 07:00N 42°12' W 081°12'1514.6 220 / 221026.8 0.2-5.5 7.7
2014-Nov-22 06:00N 42°18' W 080°54'1313.3 210 / 221027.9 -1.1-6.5 7.7
2014-Nov-22 05:00N 42°18' W 080°36'1110.7 210 / 221028.3 -2.0-6.9 7.8
2014-Nov-22 04:00N 42°24' W 080°24'1514.6 220 / 221029.0 -2.1-7.9 8.5
2014-Nov-22 03:00N 42°30' W 080°06'1110.7 220 / 191029.4 -2.3-7.5 8.0
2014-Nov-22 02:00N 42°36' W 079°54'1514.5 230 / 201029.2 -1.5-6.3 9.0
2014-Nov-22 01:00N 42°42' W 079°36'1110.7 240 / 251029.2 -1.1-5.1 7.4
2014-Nov-22 00:00N 42°48' W 079°24'1110.6 260 / 231029.9 -1.4-6.6 6.4
2014-Nov-21 23:00N 42°54' W 079°12'0 0.0 290 / 71031.7 -4.0-10.7 5.3
2014-Nov-21 22:00N 42°54' W 079°12'6 6.0 270 / 71031.3 -4.1-10.6 5.0
2014-Nov-21 21:00N 43°00' W 079°12'6 6.0 260 / 11 -3.1-10.5 5.2
2014-Nov-21 20:00N 43°06' W 079°12'0 0.0 260 / 8 -2.7-10.1 6.5
2014-Nov-21 19:00N 43°06' W 079°12'0 0.0 250 / 8 -2.6-10.6 5.9
2014-Nov-21 18:00N 43°06' W 079°12'0 0.0 250 / 8 -3.1-10.4
2014-Nov-21 17:00N 43°06' W 079°12'6 6.0 270 / 3 -3.3-9.9 6.1
2014-Nov-21 16:00N 43°12' W 079°12'0 0.0 250 / 51026.1 -4.1-9.1 6.0
2014-Nov-21 15:00N 43°12' W 079°12'0 0.0 240 / 91025.3 -5.7-9.7 5.7
2014-Nov-21 14:00N 43°12' W 079°12'0 0.0 240 / 81025.7 -5.5-8.9 5.8
2014-Nov-21 13:00N 43°12' W 079°12'6 6.0 240 / 121026.3 -5.7-8.1 6.1
2014-Nov-21 12:00N 43°18' W 079°12'7 7.4 300 / 81024.5 -2.7-6.8 6.0
2014-Nov-21 11:00N 43°12' W 079°18'0 0.0 270 / 211022.9 -3.8-6.2 5.5
2014-Nov-21 05:00N 43°12' W 079°18'0 0.0 260 / 221016.5 -5.4-9.3 5.5
2014-Nov-21 04:00N 43°12' W 079°18'0 0.0 260 / 241015.7 -4.8-8.4 5.4
2014-Nov-21 03:00N 43°12' W 079°18'0 0.0 250 / 251015.1 -4.8-8.6
2014-Nov-21 02:00N 43°12' W 079°18'0 0.0 270 / 241014.8 -3.7-7.6 5.5
2014-Nov-21 01:00N 43°12' W 079°18'0 0.0 270 / 241014.2 -3.3-7.3 5.6
2014-Nov-21 00:00N 43°12' W 079°18'0 0.0 270 / 221014.0 -3.4-6.5 5.8
2014-Nov-20 23:00N 43°12' W 079°18'1414.4 270 / 191013.8 -2.1-5.2 6.3
2014-Nov-20 22:00N 43°18' W 079°36'9 8.7 250 / 171012.7 -2.6-6.6 6.3
2014-Nov-20 21:00N 43°18' W 079°48'0 0.0 260 / 191011.5 -3.0-7.4 5.9
2014-Nov-20 20:00N 43°18' W 079°48'0 0.0 250 / 191010.9 -3.4-6.9
2014-Nov-20 19:00N 43°18' W 079°48'0 0.0 290 / 201010.6 -4.0-5.9
2014-Nov-20 13:00N 43°18' W 079°48'0 0.0 240 / 241009.4 -3.6-8.0
2014-Nov-20 10:00N 43°18' W 079°48'0 0.0 260 / 251007.9 -2.6-7.4
2014-Nov-20 09:00N 43°18' W 079°48'0 0.0 250 / 231007.6 -2.3-6.2
2014-Nov-20 08:00N 43°18' W 079°48'0 0.0 260 / 231007.3 -2.2-5.7
2014-Nov-20 07:00N 43°18' W 079°48'0 0.0 240 / 251007.1 -1.9-4.9
2014-Nov-20 06:00N 43°18' W 079°48'0 0.0 240 / 251006.8 -1.0-6.7
2014-Nov-20 03:00N 43°18' W 079°48'0 0.0 260 / 221005.5 0.5-3.2 5.9
2014-Nov-20 02:00N 43°18' W 079°48'0 0.0 230 / 161005.8 0.3-2.1
2014-Nov-20 01:00N 43°18' W 079°48'0 0.0 230 / 131006.8 -0.7-1.2
2014-Nov-19 23:00N 43°18' W 079°48'0 0.0 180 / 131008.9 -2.0-3.3
2014-Nov-19 22:00N 43°18' W 079°48'0 0.0 160 / 121010.2 -2.9-3.7
2014-Nov-19 21:00N 43°18' W 079°48'0 0.0 180 / 131011.0 -3.4-4.6
2014-Nov-19 20:00N 43°18' W 079°48'0 0.0 170 / 101011.9 -4.0-5.0
2014-Nov-19 19:00N 43°18' W 079°48'0 0.0 160 / 81013.7 -4.7-6.7
2014-Nov-19 18:00N 43°18' W 079°48'0 0.0 220 / 81015.5 -5.1-8.3
2014-Nov-19 17:00N 43°18' W 079°48'0 0.0 240 / 131016.7 -5.8-9.8
2014-Nov-19 16:00N 43°18' W 079°48'0 0.0 240 / 101018.0 -5.9-11.4
2014-Nov-19 15:00N 43°18' W 079°48'0 0.0 250 / 121018.6 -6.9-11.8
2014-Nov-19 14:00N 43°18' W 079°48'0 0.0 230 / 121019.2 -8.0-11.5
2014-Nov-19 13:00N 43°18' W 079°48'0 0.0 240 / 141018.9 -8.2-11.0
2014-Nov-19 12:00N 43°18' W 079°48'0 0.0 250 / 171018.4 -8.0-11.0
2014-Nov-19 11:00N 43°18' W 079°48'0 0.0 260 / 171018.1 -8.0-11.1
2014-Nov-19 10:00N 43°18' W 079°48'0 0.0 250 / 201018.0 -7.8-11.0
2014-Nov-19 07:00N 43°18' W 079°48'0 0.0 240 / 251017.3 -7.2-10.5
2014-Nov-19 06:00N 43°18' W 079°48'0 0.0 250 / 211016.8 -6.8-10.3 5.8
2014-Nov-18 08:00N 43°18' W 079°48'0 0.0 250 / 251005.5 -6.1-10.2
2014-Nov-18 06:00N 43°18' W 079°48'0 0.0 260 / 211005.1 -5.1-9.7
2014-Nov-18 05:00N 43°18' W 079°48'7 0.7 250 / 231005.1 -4.0-9.0
2014-Nov-17 19:00N 43°24' W 079°42'0 0.0 260 / 61000.5 1.3 1.1
2014-Nov-17 18:00N 43°24' W 079°42'0 0.0 290 / 21000.9 2.1 1.3
2014-Nov-17 17:00N 43°24' W 079°42'0 0.0 320 / 11002.1 1.7 1.0
2014-Nov-17 16:00N 43°24' W 079°42'0 0.0 330 / 31003.2 1.2 0.8
2014-Nov-17 15:00N 43°24' W 079°42'0 0.0 330 / 51004.2 0.4 0.3
2014-Nov-17 13:00N 43°24' W 079°42'0 0.0 330 / 81006.9 -0.0-0.5
2014-Nov-17 12:00N 43°24' W 079°42'0 0.0 350 / 81007.4 -0.5-0.6
2014-Nov-17 11:00N 43°24' W 079°42'0 0.0 340 / 91008.1 -0.4-0.6
2014-Nov-17 10:00N 43°24' W 079°42'0 0.0 340 / 71009.4 -0.5-0.6
2014-Nov-17 09:00N 43°24' W 079°42'0 0.0 360 / 71010.5 -0.4-0.4
2014-Nov-17 08:00N 43°24' W 079°42'0 0.0 030 / 61011.8 -0.1-0.2
2014-Nov-17 07:00N 43°24' W 079°42'0 0.0 030 / 41012.6 -0.1-0.9
2014-Nov-17 06:00N 43°24' W 079°42'0 0.0 080 / 51013.5 0.1-0.8
2014-Nov-17 05:00N 43°24' W 079°42'0 0.0 070 / 21014.5 -0.4-0.9
2014-Nov-17 04:00N 43°24' W 079°42'0 0.0 350 / 11015.3 -0.4-0.5
2014-Nov-17 03:00N 43°24' W 079°42'0 0.0 250 / 11015.9 0.2-0.2
2014-Nov-17 02:00N 43°24' W 079°42'0 0.0 240 / 31016.3 0.3-0.5
2014-Nov-17 01:00N 43°24' W 079°42'0 0.0 220 / 61017.4 0.2-0.2
2014-Nov-17 00:00N 43°24' W 079°42'0 0.0 220 / 81018.1 0.2-0.4
2014-Nov-16 23:00N 43°24' W 079°42'0 0.0 220 / 71017.9 0.2-0.3
2014-Nov-16 22:00N 43°24' W 079°42'0 0.0 210 / 81017.8 0.2-0.8
2014-Nov-16 21:00N 43°24' W 079°42'0 0.0 200 / 91018.0 -0.0-1.0
2014-Nov-16 20:00N 43°24' W 079°42'0 0.0 220 / 71018.2 0.2-1.5
2014-Nov-16 19:00N 43°24' W 079°42'0 0.0 220 / 91018.6 -0.1-2.0
2014-Nov-16 18:00N 43°24' W 079°42'0 0.0 230 / 61019.4 -0.5-2.1
2014-Nov-16 17:00N 43°24' W 079°42'0 0.0 250 / 61020.1 -0.6-2.6
2014-Nov-16 16:00N 43°24' W 079°42'4 4.4 230 / 91020.8 -0.5-2.3 7.2
2014-Nov-16 15:00N 43°24' W 079°36'1313.1 240 / 101020.9 -1.0-2.7 7.6
2014-Nov-16 14:00N 43°24' W 079°18'1818.4 220 / 111021.6 -0.6-2.4 7.3
2014-Nov-16 13:00N 43°30' W 078°54'9 8.7 210 / 131021.6 -0.2-1.6 7.1
2014-Nov-16 12:00N 43°30' W 078°42'1414.4 210 / 141021.3 -0.2-1.1 7.0
2014-Nov-16 11:00N 43°36' W 078°24'1313.0 220 / 131021.9 0.2-0.3 9.1
2014-Nov-16 10:00N 43°36' W 078°06'1414.3 230 / 131022.3 1.0-0.7 8.3
2014-Nov-16 09:00N 43°42' W 077°48'1313.0 280 / 91023.1 2.1-2.3 9.3
2014-Nov-16 08:00N 43°42' W 077°30'1414.3 330 / 81023.3 1.8-1.9 8.8
2014-Nov-16 07:00N 43°48' W 077°12'1414.3 250 / 181022.9 3.2-3.211.1
2014-Nov-16 06:00N 43°54' W 076°54'1313.0 300 / 111023.8 1.5-3.210.8
2014-Nov-16 05:00N 43°54' W 076°36'817.2 290 / 171023.5 1.8-4.410.7
2014-Nov-16 04:33N 44°00' W 076°30'712.9
2014-Nov-16 04:00N 44°06' W 076°24'612.8 280 / 201023.3 1.7-5.110.3
2014-Nov-16 03:33N 44°10' W 076°19'5 9.7
2014-Nov-16 03:00N 44°12' W 076°12'613.9 270 / 231022.7 1.8-5.8 9.9
2014-Nov-16 02:33N 44°15' W 076°05'814.6
2014-Nov-16 02:00N 44°18' W 075°54'3 5.6 250 / 19 2.4-5.6 9.9
2014-Nov-16 01:31N 44°20' W 075°55'4 6.9
2014-Nov-16 01:00N 44°24' W 075°54'4 8.6 260 / 17 2.2-4.4 9.9
2014-Nov-16 00:33N 44°26' W 075°50'4 7.3
2014-Nov-16 00:00N 44°30' W 075°48'614.8 240 / 16 2.3-5.4 9.8
2014-Nov-15 23:33N 44°35' W 075°42'815.0
2014-Nov-15 23:00N 44°42' W 075°36'1010.4 190 / 9 1.5-5.3 9.9
2014-Nov-15 22:00N 44°48' W 075°24'14 7.1 220 / 7 1.6-6.010.0
2014-Nov-15 20:00N 44°54' W 075°06'9 8.5 250 / 14 1.4-7.0 9.8
2014-Nov-15 19:00N 44°54' W 074°54'4 4.3 270 / 12 1.0-7.5 8.5
2014-Nov-15 18:00N 44°54' W 074°48'0 0.0 270 / 15 0.9-8.0 7.9
2014-Nov-15 17:00N 44°54' W 074°48'7 7.4 260 / 12 0.1-7.5 8.1
2014-Nov-15 16:00N 45°00' W 074°42'710.1 260 / 15 -0.9-7.5 9.5
2014-Nov-15 15:19N 45°03' W 074°33'411.6
2014-Nov-15 15:00N 45°06' W 074°30'3 6.3 270 / 16 -1.7-8.3 9.4
2014-Nov-15 14:34N 45°08' W 074°27'813.5
2014-Nov-15 14:00N 45°12' W 074°18'4 9.0 270 / 17 -3.0-8.6 9.0
2014-Nov-15 13:33N 45°14' W 074°13'5 9.3
2014-Nov-15 13:00N 45°12' W 074°06'4 9.7 270 / 22 -3.0-8.2 8.8
2014-Nov-15 12:33N 45°14' W 074°01'611.1
2014-Nov-15 12:00N 45°18' W 073°54'1 2.6 260 / 8 -3.9-8.9 8.8
2014-Nov-15 11:33N 45°18' W 073°56'1 2.0
2014-Nov-15 11:00N 45°18' W 073°54'1 3.0 260 / 13 -2.5-9.5 9.2
2014-Nov-15 10:33N 45°19' W 073°55'1 2.3
2014-Nov-15 10:00N 45°18' W 073°54'613.9 270 / 17 -1.8-8.7 8.6
2014-Nov-15 09:33N 45°23' W 073°49'5 8.7
2014-Nov-15 09:00N 45°24' W 073°42'3 8.0 290 / 12 -2.0-9.7 7.5
2014-Nov-15 08:33N 45°24' W 073°37'1 1.4
2014-Nov-15 08:00N 45°24' W 073°36'2 4.4 300 / 10 -2.8-8.4
2014-Nov-15 07:33N 45°24' W 073°33'2 4.3
2014-Nov-15 07:00N 45°24' W 073°30'2 3.9 290 / 13 -2.4-7.1 7.9
2014-Nov-15 06:33N 45°26' W 073°30'4 7.6
2014-Nov-15 06:00N 45°30' W 073°30'1 1.9 290 / 11 -2.2-7.0 7.7
2014-Nov-15 05:33N 45°30' W 073°31'1 1.4
2014-Nov-15 05:00N 45°30' W 073°30'1 3.0 290 / 10 -1.8-6.6 7.6
2014-Nov-15 04:33N 45°31' W 073°31'5 9.3
2014-Nov-15 04:00N 45°36' W 073°30'1 1.8 280 / 10 -2.0-6.6 8.0
2014-Nov-15 03:33N 45°37' W 073°30'1 1.3
2014-Nov-15 03:00N 45°36' W 073°30'0 0.0 280 / 6 -1.8-7.0
2014-Nov-15 02:00N 45°36' W 073°30'0 0.0 290 / 7 -1.4-6.9
2014-Nov-15 01:00N 45°36' W 073°30'0 0.0 290 / 5 -0.9-7.1
2014-Nov-15 00:00N 45°36' W 073°30'0 0.0 290 / 5 -0.5-7.8
2014-Nov-14 23:00N 45°36' W 073°30'0 0.0 280 / 6 -0.1-6.6
2014-Nov-14 22:00N 45°36' W 073°30'0 0.0 300 / 6 0.4-7.3
2014-Nov-14 21:00N 45°36' W 073°30'0 0.0 290 / 6 0.9-7.1
2014-Nov-14 20:00N 45°36' W 073°30'0 0.0 260 / 8 0.9-6.9
2014-Nov-14 19:00N 45°36' W 073°30'0 0.0 260 / 9 0.8-6.7
2014-Nov-14 18:00N 45°36' W 073°30'0 0.0 280 / 9 0.8-8.6
2014-Nov-14 17:00N 45°36' W 073°30'0 0.0 280 / 10 0.3-7.0
2014-Nov-14 16:00N 45°36' W 073°30'0 0.0 260 / 10 0.8-6.5
2014-Nov-14 15:00N 45°36' W 073°30'0 0.0 270 / 8 0.1-4.3
2014-Nov-14 14:00N 45°36' W 073°30'0 0.0 280 / 5 -0.0-3.4
2014-Nov-14 13:00N 45°36' W 073°30'0 0.0 250 / 6 -0.7-3.2
2014-Nov-14 12:00N 45°36' W 073°30'0 0.0 270 / 4 -1.4-3.1
2014-Nov-14 11:00N 45°36' W 073°30'1 1.2 260 / 6 -1.1-3.0
2014-Nov-14 10:20N 45°37' W 073°30'1 2.2
2014-Nov-14 10:00N 45°36' W 073°30'0 0.0 270 / 7 -0.4-3.0
2014-Nov-14 09:00N 45°36' W 073°30'0 0.0 270 / 5 -0.0-2.6
2014-Nov-14 08:00N 45°36' W 073°30'0 0.0 250 / 7 0.5-1.9
2014-Nov-14 07:00N 45°36' W 073°30'   270 / 9 0.8-1.7

Dump ship's entire track history